sensor_id;sensor_type;location;lat;lon;timestamp;pressure;altitude;pressure_sealevel;temperature;humidity
77410;BME280;66481;51.332;22.804;2024-03-25T00:00:11;98338.09;;;-0.66;100.00
77410;BME280;66481;51.332;22.804;2024-03-25T00:04:32;98338.09;;;-0.66;100.00
77410;BME280;66481;51.332;22.804;2024-03-25T00:08:33;98345.47;;;-0.58;100.00
77410;BME280;66481;51.332;22.804;2024-03-25T00:12:35;98337.53;;;-0.55;100.00
77410;BME280;66481;51.332;22.804;2024-03-25T00:16:36;98336.66;;;-0.55;100.00
77410;BME280;66481;51.332;22.804;2024-03-25T00:20:37;98338.50;;;-0.58;100.00
77410;BME280;66481;51.332;22.804;2024-03-25T00:24:38;98343.16;;;-0.64;100.00
77410;BME280;66481;51.332;22.804;2024-03-25T00:28:40;98340.56;;;-0.64;100.00
77410;BME280;66481;51.332;22.804;2024-03-25T00:32:41;98341.38;;;-0.62;100.00
77410;BME280;66481;51.332;22.804;2024-03-25T00:36:42;98337.00;;;-0.62;100.00
77410;BME280;66481;51.332;22.804;2024-03-25T00:40:44;98328.66;;;-0.68;100.00
77410;BME280;66481;51.332;22.804;2024-03-25T00:44:45;98335.09;;;-0.76;100.00
77410;BME280;66481;51.332;22.804;2024-03-25T00:48:46;98331.50;;;-0.73;100.00
77410;BME280;66481;51.332;22.804;2024-03-25T00:52:47;98333.31;;;-0.75;100.00
77410;BME280;66481;51.332;22.804;2024-03-25T00:56:49;98337.16;;;-0.82;100.00
77410;BME280;66481;51.332;22.804;2024-03-25T01:00:50;98333.09;;;-0.88;100.00
77410;BME280;66481;51.332;22.804;2024-03-25T01:04:51;98339.97;;;-0.87;100.00
77410;BME280;66481;51.332;22.804;2024-03-25T01:08:52;98342.56;;;-0.87;100.00
77410;BME280;66481;51.332;22.804;2024-03-25T01:12:53;98347.81;;;-0.88;100.00
77410;BME280;66481;51.332;22.804;2024-03-25T01:16:54;98348.28;;;-0.80;100.00
77410;BME280;66481;51.332;22.804;2024-03-25T01:20:55;98352.03;;;-0.68;100.00
77410;BME280;66481;51.332;22.804;2024-03-25T01:24:57;98346.09;;;-0.70;100.00
77410;BME280;66481;51.332;22.804;2024-03-25T01:28:58;98357.03;;;-0.64;100.00
77410;BME280;66481;51.332;22.804;2024-03-25T01:32:59;98356.34;;;-0.67;100.00
77410;BME280;66481;51.332;22.804;2024-03-25T01:37:00;98355.81;;;-0.74;100.00
77410;BME280;66481;51.332;22.804;2024-03-25T01:41:09;98352.72;;;-0.82;100.00
77410;BME280;66481;51.332;22.804;2024-03-25T01:45:10;98350.81;;;-0.79;100.00
77410;BME280;66481;51.332;22.804;2024-03-25T01:49:11;98347.31;;;-0.78;100.00
77410;BME280;66481;51.332;22.804;2024-03-25T01:53:14;98340.03;;;-0.88;100.00
77410;BME280;66481;51.332;22.804;2024-03-25T01:57:15;98350.69;;;-0.76;100.00
77410;BME280;66481;51.332;22.804;2024-03-25T02:01:20;98339.69;;;-0.81;100.00
77410;BME280;66481;51.332;22.804;2024-03-25T02:05:21;98343.19;;;-0.82;100.00
77410;BME280;66481;51.332;22.804;2024-03-25T02:09:22;98334.47;;;-0.81;100.00
77410;BME280;66481;51.332;22.804;2024-03-25T02:13:24;98334.78;;;-0.87;100.00
77410;BME280;66481;51.332;22.804;2024-03-25T02:17:25;98334.09;;;-0.90;100.00
77410;BME280;66481;51.332;22.804;2024-03-25T02:21:26;98339.00;;;-0.84;100.00
77410;BME280;66481;51.332;22.804;2024-03-25T02:25:27;98337.44;;;-0.88;100.00
77410;BME280;66481;51.332;22.804;2024-03-25T02:29:34;98337.91;;;-0.98;100.00
77410;BME280;66481;51.332;22.804;2024-03-25T02:33:35;98342.25;;;-0.98;100.00
77410;BME280;66481;51.332;22.804;2024-03-25T02:37:38;98347.53;;;-1.00;100.00
77410;BME280;66481;51.332;22.804;2024-03-25T02:41:39;98339.13;;;-1.05;100.00
77410;BME280;66481;51.332;22.804;2024-03-25T02:45:40;98340.72;;;-1.02;100.00
77410;BME280;66481;51.332;22.804;2024-03-25T02:49:42;98340.09;;;-1.07;100.00
77410;BME280;66481;51.332;22.804;2024-03-25T02:53:44;98342.69;;;-1.07;100.00
77410;BME280;66481;51.332;22.804;2024-03-25T02:57:45;98342.88;;;-1.10;100.00
77410;BME280;66481;51.332;22.804;2024-03-25T03:01:46;98341.31;;;-1.15;100.00
77410;BME280;66481;51.332;22.804;2024-03-25T03:05:47;98341.56;;;-1.19;100.00
77410;BME280;66481;51.332;22.804;2024-03-25T03:09:48;98348.47;;;-1.20;100.00
77410;BME280;66481;51.332;22.804;2024-03-25T03:13:49;98348.13;;;-1.12;100.00
77410;BME280;66481;51.332;22.804;2024-03-25T03:17:50;98351.34;;;-1.07;100.00
77410;BME280;66481;51.332;22.804;2024-03-25T03:21:51;98346.63;;;-0.99;100.00
77410;BME280;66481;51.332;22.804;2024-03-25T03:25:52;98361.44;;;-0.83;100.00
77410;BME280;66481;51.332;22.804;2024-03-25T03:29:53;98364.13;;;-0.85;100.00
77410;BME280;66481;51.332;22.804;2024-03-25T03:33:54;98355.47;;;-0.85;100.00
77410;BME280;66481;51.332;22.804;2024-03-25T03:37:55;98370.44;;;-0.73;100.00
77410;BME280;66481;51.332;22.804;2024-03-25T03:41:57;98353.88;;;-0.70;100.00
77410;BME280;66481;51.332;22.804;2024-03-25T03:45:58;98372.81;;;-0.68;100.00
77410;BME280;66481;51.332;22.804;2024-03-25T03:49:59;98374.44;;;-0.66;100.00
77410;BME280;66481;51.332;22.804;2024-03-25T03:54:00;98378.94;;;-0.69;100.00
77410;BME280;66481;51.332;22.804;2024-03-25T03:58:01;98377.34;;;-0.72;100.00
77410;BME280;66481;51.332;22.804;2024-03-25T04:02:03;98382.69;;;-0.58;100.00
77410;BME280;66481;51.332;22.804;2024-03-25T04:06:11;98382.13;;;-0.47;100.00
77410;BME280;66481;51.332;22.804;2024-03-25T04:10:12;98382.44;;;-0.35;100.00
77410;BME280;66481;51.332;22.804;2024-03-25T04:14:13;98377.94;;;-0.32;100.00
77410;BME280;66481;51.332;22.804;2024-03-25T04:18:14;98372.50;;;-0.27;100.00
77410;BME280;66481;51.332;22.804;2024-03-25T04:22:15;98366.38;;;-0.26;100.00
77410;BME280;66481;51.332;22.804;2024-03-25T04:26:16;98377.28;;;-0.20;100.00
77410;BME280;66481;51.332;22.804;2024-03-25T04:30:18;98379.47;;;0.06;100.00
77410;BME280;66481;51.332;22.804;2024-03-25T04:34:19;98378.34;;;0.43;100.00
77410;BME280;66481;51.332;22.804;2024-03-25T04:38:21;98370.78;;;0.70;100.00
77410;BME280;66481;51.332;22.804;2024-03-25T04:42:22;98346.88;;;0.48;100.00
77410;BME280;66481;51.332;22.804;2024-03-25T04:46:24;98333.28;;;0.27;100.00
77410;BME280;66481;51.332;22.804;2024-03-25T04:50:26;98333.78;;;0.17;100.00
77410;BME280;66481;51.332;22.804;2024-03-25T04:54:28;98343.44;;;0.31;100.00
77410;BME280;66481;51.332;22.804;2024-03-25T04:58:29;98341.91;;;0.43;100.00
77410;BME280;66481;51.332;22.804;2024-03-25T05:02:30;98322.28;;;0.37;100.00
77410;BME280;66481;51.332;22.804;2024-03-25T05:06:31;98328.50;;;0.51;100.00
77410;BME280;66481;51.332;22.804;2024-03-25T05:10:34;98329.25;;;0.53;100.00
77410;BME280;66481;51.332;22.804;2024-03-25T05:14:35;98318.91;;;0.51;100.00
77410;BME280;66481;51.332;22.804;2024-03-25T05:18:36;98321.69;;;0.64;100.00
77410;BME280;66481;51.332;22.804;2024-03-25T05:22:37;98325.03;;;0.82;100.00
77410;BME280;66481;51.332;22.804;2024-03-25T05:26:38;98322.09;;;0.88;100.00
77410;BME280;66481;51.332;22.804;2024-03-25T05:30:39;98320.31;;;0.89;100.00
77410;BME280;66481;51.332;22.804;2024-03-25T05:34:40;98313.41;;;0.88;100.00
77410;BME280;66481;51.332;22.804;2024-03-25T05:38:41;98301.91;;;0.92;100.00
77410;BME280;66481;51.332;22.804;2024-03-25T05:42:45;98307.63;;;0.99;100.00
77410;BME280;66481;51.332;22.804;2024-03-25T05:46:46;98305.66;;;1.02;100.00
77410;BME280;66481;51.332;22.804;2024-03-25T05:55:00;98309.13;;;1.62;100.00
77410;BME280;66481;51.332;22.804;2024-03-25T05:59:01;98338.59;;;2.49;100.00
77410;BME280;66481;51.332;22.804;2024-03-25T06:03:02;98356.63;;;4.99;100.00
77410;BME280;66481;51.332;22.804;2024-03-25T06:07:03;98342.47;;;6.63;98.86
77410;BME280;66481;51.332;22.804;2024-03-25T06:11:05;98309.59;;;7.12;91.91
77410;BME280;66481;51.332;22.804;2024-03-25T06:15:06;98270.38;;;6.88;85.84
77410;BME280;66481;51.332;22.804;2024-03-25T06:19:10;98289.06;;;7.69;82.42
77410;BME280;66481;51.332;22.804;2024-03-25T06:23:24;98313.91;;;9.37;77.10
77410;BME280;66481;51.332;22.804;2024-03-25T06:27:26;98301.13;;;10.09;73.35
77410;BME280;66481;51.332;22.804;2024-03-25T06:31:28;98278.41;;;10.71;69.30
77410;BME280;66481;51.332;22.804;2024-03-25T06:35:48;98217.53;;;10.53;66.66
77410;BME280;66481;51.332;22.804;2024-03-25T06:39:49;98254.19;;;12.33;64.64
77410;BME280;66481;51.332;22.804;2024-03-25T06:43:51;98232.47;;;12.30;62.70
77410;BME280;66481;51.332;22.804;2024-03-25T06:47:52;98198.84;;;12.38;61.60
77410;BME280;66481;51.332;22.804;2024-03-25T06:51:54;98199.06;;;12.62;61.25
77410;BME280;66481;51.332;22.804;2024-03-25T06:55:59;98098.16;;;11.96;59.65
77410;BME280;66481;51.332;22.804;2024-03-25T07:00:03;98158.72;;;12.33;62.54
77410;BME280;66481;51.332;22.804;2024-03-25T07:04:09;98086.66;;;11.79;60.49
77410;BME280;66481;51.332;22.804;2024-03-25T07:08:11;98149.53;;;13.67;58.87
77410;BME280;66481;51.332;22.804;2024-03-25T07:12:12;98120.47;;;13.58;58.04
77410;BME280;66481;51.332;22.804;2024-03-25T07:16:13;98107.13;;;13.74;57.60
77410;BME280;66481;51.332;22.804;2024-03-25T07:20:16;98051.69;;;14.40;53.89
77410;BME280;66481;51.332;22.804;2024-03-25T07:24:17;98099.44;;;15.63;54.86
77410;BME280;66481;51.332;22.804;2024-03-25T07:28:18;98013.97;;;13.36;55.09
77410;BME280;66481;51.332;22.804;2024-03-25T07:32:20;98063.47;;;14.23;54.95
77410;BME280;66481;51.332;22.804;2024-03-25T07:36:21;98069.72;;;14.91;54.21
77410;BME280;66481;51.332;22.804;2024-03-25T07:40:22;98081.13;;;14.39;53.57
77410;BME280;66481;51.332;22.804;2024-03-25T07:44:25;98054.97;;;14.65;52.62
77410;BME280;66481;51.332;22.804;2024-03-25T07:48:26;98086.28;;;16.55;50.47
77410;BME280;66481;51.332;22.804;2024-03-25T07:52:27;98066.41;;;16.58;49.83
77410;BME280;66481;51.332;22.804;2024-03-25T07:56:28;98041.25;;;17.79;46.29
77410;BME280;66481;51.332;22.804;2024-03-25T08:00:29;98090.63;;;17.35;48.69
77410;BME280;66481;51.332;22.804;2024-03-25T08:04:30;98018.59;;;15.62;47.31
77410;BME280;66481;51.332;22.804;2024-03-25T08:08:32;98051.13;;;15.21;49.27
77410;BME280;66481;51.332;22.804;2024-03-25T08:12:33;98110.22;;;17.14;49.35
77410;BME280;66481;51.332;22.804;2024-03-25T08:16:35;98081.78;;;17.06;47.82
77410;BME280;66481;51.332;22.804;2024-03-25T08:20:36;98092.47;;;14.64;52.17
77410;BME280;66481;51.332;22.804;2024-03-25T08:24:38;98101.03;;;14.89;51.07
77410;BME280;66481;51.332;22.804;2024-03-25T08:28:39;98099.88;;;15.81;49.23
77410;BME280;66481;51.332;22.804;2024-03-25T08:32:40;98130.03;;;17.26;48.95
77410;BME280;66481;51.332;22.804;2024-03-25T08:36:43;98075.53;;;14.10;51.73
77410;BME280;66481;51.332;22.804;2024-03-25T08:40:44;98064.34;;;12.88;52.36
77410;BME280;66481;51.332;22.804;2024-03-25T08:44:45;98127.25;;;14.54;52.46
77410;BME280;66481;51.332;22.804;2024-03-25T08:48:46;98113.91;;;14.08;52.74
77410;BME280;66481;51.332;22.804;2024-03-25T08:52:47;98094.38;;;14.47;51.24
77410;BME280;66481;51.332;22.804;2024-03-25T08:56:48;98100.53;;;12.40;54.51
77410;BME280;66481;51.332;22.804;2024-03-25T09:00:50;98162.22;;;13.16;57.77
77410;BME280;66481;51.332;22.804;2024-03-25T09:04:50;98121.22;;;14.37;51.82
77410;BME280;66481;51.332;22.804;2024-03-25T09:08:51;98113.31;;;12.86;54.70
77410;BME280;66481;51.332;22.804;2024-03-25T09:13:11;98143.00;;;15.25;50.33
77410;BME280;66481;51.332;22.804;2024-03-25T09:17:12;98154.94;;;15.29;51.96
77410;BME280;66481;51.332;22.804;2024-03-25T09:21:13;98129.88;;;12.22;55.72
77410;BME280;66481;51.332;22.804;2024-03-25T09:25:15;98128.41;;;12.69;54.34
77410;BME280;66481;51.332;22.804;2024-03-25T09:29:16;98172.72;;;14.21;53.76
77410;BME280;66481;51.332;22.804;2024-03-25T09:33:19;98137.75;;;15.17;50.61
77410;BME280;66481;51.332;22.804;2024-03-25T09:37:22;98133.22;;;14.64;50.34
77410;BME280;66481;51.332;22.804;2024-03-25T09:41:24;98098.03;;;14.46;49.83
77410;BME280;66481;51.332;22.804;2024-03-25T09:45:25;98105.50;;;12.59;53.66
77410;BME280;66481;51.332;22.804;2024-03-25T09:49:32;98136.66;;;11.74;57.66
77410;BME280;66481;51.332;22.804;2024-03-25T09:53:33;98144.34;;;10.08;60.57
77410;BME280;66481;51.332;22.804;2024-03-25T09:57:35;98188.72;;;11.04;62.00
77410;BME280;66481;51.332;22.804;2024-03-25T10:01:36;98150.84;;;10.86;59.54
77410;BME280;66481;51.332;22.804;2024-03-25T10:05:39;98165.38;;;10.64;60.25
77410;BME280;66481;51.332;22.804;2024-03-25T10:09:40;98150.66;;;9.42;61.59
77410;BME280;66481;51.332;22.804;2024-03-25T10:13:41;98179.16;;;10.04;61.85
77410;BME280;66481;51.332;22.804;2024-03-25T10:17:43;98177.88;;;9.80;62.19
77410;BME280;66481;51.332;22.804;2024-03-25T10:21:45;98160.56;;;9.68;60.70
77410;BME280;66481;51.332;22.804;2024-03-25T10:25:48;98175.19;;;9.52;61.41
77410;BME280;66481;51.332;22.804;2024-03-25T10:29:54;98182.19;;;10.09;61.15
77410;BME280;66481;51.332;22.804;2024-03-25T10:33:58;98193.34;;;10.48;60.66
77410;BME280;66481;51.332;22.804;2024-03-25T10:38:11;98172.41;;;10.37;58.96
77410;BME280;66481;51.332;22.804;2024-03-25T10:42:20;98178.50;;;9.64;62.39
77410;BME280;66481;51.332;22.804;2024-03-25T10:46:22;98176.75;;;8.78;63.92
77410;BME280;66481;51.332;22.804;2024-03-25T10:50:29;98188.69;;;8.73;65.98
77410;BME280;66481;51.332;22.804;2024-03-25T10:54:31;98177.72;;;8.68;64.68
77410;BME280;66481;51.332;22.804;2024-03-25T10:58:33;98205.88;;;9.06;65.46
77410;BME280;66481;51.332;22.804;2024-03-25T11:02:35;98195.91;;;8.61;65.79
77410;BME280;66481;51.332;22.804;2024-03-25T11:06:36;98200.84;;;8.35;67.16
77410;BME280;66481;51.332;22.804;2024-03-25T11:10:47;98209.63;;;8.45;67.71
77410;BME280;66481;51.332;22.804;2024-03-25T11:14:56;98196.31;;;9.05;66.10
77410;BME280;66481;51.332;22.804;2024-03-25T11:19:02;98190.63;;;8.71;66.10
77410;BME280;66481;51.332;22.804;2024-03-25T11:23:11;98192.97;;;8.83;65.70
77410;BME280;66481;51.332;22.804;2024-03-25T11:27:12;98204.06;;;9.07;65.35
77410;BME280;66481;51.332;22.804;2024-03-25T11:31:15;98192.13;;;9.02;65.58
77410;BME280;66481;51.332;22.804;2024-03-25T11:35:18;98200.72;;;9.04;67.13
77410;BME280;66481;51.332;22.804;2024-03-25T11:39:19;98196.94;;;9.27;66.12
77410;BME280;66481;51.332;22.804;2024-03-25T11:43:22;98196.72;;;9.57;65.72
77410;BME280;66481;51.332;22.804;2024-03-25T11:47:23;98199.66;;;9.54;66.37
77410;BME280;66481;51.332;22.804;2024-03-25T11:51:25;98188.13;;;9.55;64.67
77410;BME280;66481;51.332;22.804;2024-03-25T11:55:26;98184.53;;;9.47;64.87
77410;BME280;66481;51.332;22.804;2024-03-25T11:59:28;98179.41;;;9.45;64.19
77410;BME280;66481;51.332;22.804;2024-03-25T12:03:29;98176.75;;;10.56;61.64
77410;BME280;66481;51.332;22.804;2024-03-25T12:07:32;98149.06;;;11.73;57.77
77410;BME280;66481;51.332;22.804;2024-03-25T12:11:36;98151.88;;;12.14;57.65
77410;BME280;66481;51.332;22.804;2024-03-25T12:15:37;98126.53;;;11.08;59.89
77410;BME280;66481;51.332;22.804;2024-03-25T12:19:40;98135.63;;;9.98;61.58
77410;BME280;66481;51.332;22.804;2024-03-25T12:23:42;98150.09;;;9.38;63.89
77410;BME280;66481;51.332;22.804;2024-03-25T12:27:46;98178.00;;;9.41;67.11
77410;BME280;66481;51.332;22.804;2024-03-25T12:31:57;98184.94;;;9.52;65.89
77410;BME280;66481;51.332;22.804;2024-03-25T12:35:58;98177.09;;;9.60;64.67
77410;BME280;66481;51.332;22.804;2024-03-25T12:39:59;98175.13;;;9.34;64.15
77410;BME280;66481;51.332;22.804;2024-03-25T12:44:00;98209.50;;;9.62;64.80
77410;BME280;66481;51.332;22.804;2024-03-25T12:48:01;98222.22;;;8.41;68.79
77410;BME280;66481;51.332;22.804;2024-03-25T12:52:05;98265.75;;;7.64;74.76
77410;BME280;66481;51.332;22.804;2024-03-25T12:56:07;98290.25;;;7.34;78.46
77410;BME280;66481;51.332;22.804;2024-03-25T13:00:09;98305.69;;;7.06;80.50
77410;BME280;66481;51.332;22.804;2024-03-25T13:04:10;98307.84;;;7.01;81.05
77410;BME280;66481;51.332;22.804;2024-03-25T13:08:14;98302.50;;;7.24;80.68
77410;BME280;66481;51.332;22.804;2024-03-25T13:12:18;98295.50;;;7.34;80.08
77410;BME280;66481;51.332;22.804;2024-03-25T13:16:20;98283.22;;;7.65;77.37
77410;BME280;66481;51.332;22.804;2024-03-25T13:20:22;98282.06;;;7.79;75.86
77410;BME280;66481;51.332;22.804;2024-03-25T13:24:23;98257.31;;;8.42;73.02
77410;BME280;66481;51.332;22.804;2024-03-25T13:28:24;98228.38;;;9.10;69.27
77410;BME280;66481;51.332;22.804;2024-03-25T13:32:25;98216.53;;;9.81;67.06
77410;BME280;66481;51.332;22.804;2024-03-25T13:36:27;98191.16;;;10.44;61.62
77410;BME280;66481;51.332;22.804;2024-03-25T13:40:28;98216.94;;;10.78;65.46
77410;BME280;66481;51.332;22.804;2024-03-25T13:44:32;98199.25;;;10.96;63.74
77410;BME280;66481;51.332;22.804;2024-03-25T13:48:33;98183.53;;;10.77;63.00
77410;BME280;66481;51.332;22.804;2024-03-25T13:52:35;98189.44;;;10.88;62.88
77410;BME280;66481;51.332;22.804;2024-03-25T13:56:37;98203.47;;;10.53;65.41
77410;BME280;66481;51.332;22.804;2024-03-25T14:00:40;98198.56;;;10.40;66.21
77410;BME280;66481;51.332;22.804;2024-03-25T14:04:41;98180.84;;;10.23;64.82
77410;BME280;66481;51.332;22.804;2024-03-25T14:08:42;98181.63;;;10.05;64.84
77410;BME280;66481;51.332;22.804;2024-03-25T14:12:44;98161.06;;;9.81;62.47
77410;BME280;66481;51.332;22.804;2024-03-25T14:16:46;98154.84;;;10.00;60.57
77410;BME280;66481;51.332;22.804;2024-03-25T14:20:47;98178.53;;;10.10;63.42
77410;BME280;66481;51.332;22.804;2024-03-25T14:24:48;98206.00;;;9.99;67.06
77410;BME280;66481;51.332;22.804;2024-03-25T14:28:50;98172.44;;;9.82;64.87
77410;BME280;66481;51.332;22.804;2024-03-25T14:32:51;98167.44;;;9.41;64.08
77410;BME280;66481;51.332;22.804;2024-03-25T14:36:53;98184.75;;;9.06;65.23
77410;BME280;66481;51.332;22.804;2024-03-25T14:40:55;98194.78;;;9.02;67.32
77410;BME280;66481;51.332;22.804;2024-03-25T14:44:57;98198.00;;;8.96;67.09
77410;BME280;66481;51.332;22.804;2024-03-25T14:48:58;98202.03;;;8.81;68.52
77410;BME280;66481;51.332;22.804;2024-03-25T14:52:59;98209.91;;;8.91;68.07
77410;BME280;66481;51.332;22.804;2024-03-25T14:57:00;98221.69;;;9.06;68.12
77410;BME280;66481;51.332;22.804;2024-03-25T15:01:02;98224.63;;;9.22;68.29
77410;BME280;66481;51.332;22.804;2024-03-25T15:05:04;98216.00;;;9.20;67.23
77410;BME280;66481;51.332;22.804;2024-03-25T15:09:06;98218.34;;;9.33;67.56
77410;BME280;66481;51.332;22.804;2024-03-25T15:13:08;98209.13;;;9.47;65.48
77410;BME280;66481;51.332;22.804;2024-03-25T15:17:09;98211.28;;;9.62;65.56
77410;BME280;66481;51.332;22.804;2024-03-25T15:21:10;98209.69;;;9.41;66.08
77410;BME280;66481;51.332;22.804;2024-03-25T15:25:12;98205.88;;;9.06;66.31
77410;BME280;66481;51.332;22.804;2024-03-25T15:29:13;98199.25;;;8.82;66.47
77410;BME280;66481;51.332;22.804;2024-03-25T15:33:16;98206.03;;;8.56;67.87
77410;BME280;66481;51.332;22.804;2024-03-25T15:37:17;98218.91;;;8.49;68.38
77410;BME280;66481;51.332;22.804;2024-03-25T15:41:19;98258.53;;;7.87;75.92
77410;BME280;66481;51.332;22.804;2024-03-25T15:45:20;98270.53;;;7.49;78.73
77410;BME280;66481;51.332;22.804;2024-03-25T15:49:23;98275.66;;;7.09;81.42
77410;BME280;66481;51.332;22.804;2024-03-25T15:53:25;98284.78;;;6.93;83.05
77410;BME280;66481;51.332;22.804;2024-03-25T15:57:26;98299.19;;;6.78;84.72
77410;BME280;66481;51.332;22.804;2024-03-25T16:01:29;98306.81;;;6.92;84.97
77410;BME280;66481;51.332;22.804;2024-03-25T16:05:32;98297.66;;;6.75;84.17
77410;BME280;66481;51.332;22.804;2024-03-25T16:09:33;98300.69;;;6.48;84.39
77410;BME280;66481;51.332;22.804;2024-03-25T16:13:40;98311.56;;;6.44;85.98
77410;BME280;66481;51.332;22.804;2024-03-25T16:17:56;98318.53;;;6.33;86.64
77410;BME280;66481;51.332;22.804;2024-03-25T16:21:58;98321.88;;;6.35;85.63
77410;BME280;66481;51.332;22.804;2024-03-25T16:25:59;98344.31;;;6.39;85.32
77410;BME280;66481;51.332;22.804;2024-03-25T16:30:01;98346.31;;;6.58;84.11
77410;BME280;66481;51.332;22.804;2024-03-25T16:34:02;98347.13;;;6.59;82.44
77410;BME280;66481;51.332;22.804;2024-03-25T16:38:03;98346.34;;;6.47;82.08
77410;BME280;66481;51.332;22.804;2024-03-25T16:42:05;98349.00;;;6.25;82.70
77410;BME280;66481;51.332;22.804;2024-03-25T16:46:08;98349.53;;;5.94;83.98
77410;BME280;66481;51.332;22.804;2024-03-25T16:50:10;98374.81;;;5.84;85.06
77410;BME280;66481;51.332;22.804;2024-03-25T16:54:13;98381.59;;;5.75;86.50
77410;BME280;66481;51.332;22.804;2024-03-25T16:58:15;98388.19;;;5.57;88.00
77410;BME280;66481;51.332;22.804;2024-03-25T17:02:17;98392.25;;;5.25;90.11
77410;BME280;66481;51.332;22.804;2024-03-25T17:06:19;98417.16;;;5.20;91.82
77410;BME280;66481;51.332;22.804;2024-03-25T17:10:21;98422.09;;;5.36;91.92
77410;BME280;66481;51.332;22.804;2024-03-25T17:14:22;98425.56;;;5.36;92.91
77410;BME280;66481;51.332;22.804;2024-03-25T17:18:24;98441.59;;;5.44;92.97
77410;BME280;66481;51.332;22.804;2024-03-25T17:22:26;98445.44;;;5.52;93.00
77410;BME280;66481;51.332;22.804;2024-03-25T17:26:28;98442.47;;;5.56;92.71
77410;BME280;66481;51.332;22.804;2024-03-25T17:30:29;98436.56;;;5.17;94.62
77410;BME280;66481;51.332;22.804;2024-03-25T17:34:31;98444.25;;;5.07;95.22
77410;BME280;66481;51.332;22.804;2024-03-25T17:38:33;98448.03;;;5.03;95.81
77410;BME280;66481;51.332;22.804;2024-03-25T17:42:36;98451.16;;;5.08;96.12
77410;BME280;66481;51.332;22.804;2024-03-25T17:46:37;98458.31;;;5.06;96.60
77410;BME280;66481;51.332;22.804;2024-03-25T17:50:38;98454.03;;;5.05;96.28
77410;BME280;66481;51.332;22.804;2024-03-25T17:54:40;98455.78;;;5.05;96.57
77410;BME280;66481;51.332;22.804;2024-03-25T17:58:43;98458.97;;;4.97;96.46
77410;BME280;66481;51.332;22.804;2024-03-25T18:02:44;98461.84;;;4.81;96.88
77410;BME280;66481;51.332;22.804;2024-03-25T18:06:45;98461.94;;;4.67;97.81
77410;BME280;66481;51.332;22.804;2024-03-25T18:10:47;98466.16;;;4.57;98.35
77410;BME280;66481;51.332;22.804;2024-03-25T18:14:48;98476.34;;;4.48;98.28
77410;BME280;66481;51.332;22.804;2024-03-25T18:18:50;98486.38;;;4.55;99.69
77410;BME280;66481;51.332;22.804;2024-03-25T18:22:51;98485.56;;;4.54;98.83
77410;BME280;66481;51.332;22.804;2024-03-25T18:26:52;98493.50;;;4.52;99.67
77410;BME280;66481;51.332;22.804;2024-03-25T18:30:55;98485.56;;;4.41;100.00
77410;BME280;66481;51.332;22.804;2024-03-25T18:34:57;98489.75;;;4.44;100.00
77410;BME280;66481;51.332;22.804;2024-03-25T18:38:58;98496.84;;;4.29;100.00
77410;BME280;66481;51.332;22.804;2024-03-25T18:43:01;98505.63;;;4.15;100.00
77410;BME280;66481;51.332;22.804;2024-03-25T18:47:02;98511.94;;;4.12;100.00
77410;BME280;66481;51.332;22.804;2024-03-25T18:51:04;98509.50;;;4.09;100.00
77410;BME280;66481;51.332;22.804;2024-03-25T18:55:10;98525.66;;;4.16;100.00
77410;BME280;66481;51.332;22.804;2024-03-25T18:59:11;98531.84;;;4.28;100.00
77410;BME280;66481;51.332;22.804;2024-03-25T19:03:14;98529.53;;;4.23;100.00
77410;BME280;66481;51.332;22.804;2024-03-25T19:07:15;98537.72;;;4.31;100.00
77410;BME280;66481;51.332;22.804;2024-03-25T19:11:17;98544.94;;;4.41;100.00
77410;BME280;66481;51.332;22.804;2024-03-25T19:15:18;98543.06;;;4.43;100.00
77410;BME280;66481;51.332;22.804;2024-03-25T19:19:21;98538.88;;;4.40;100.00
77410;BME280;66481;51.332;22.804;2024-03-25T19:23:23;98546.09;;;4.37;100.00
77410;BME280;66481;51.332;22.804;2024-03-25T19:27:26;98553.13;;;4.36;100.00
77410;BME280;66481;51.332;22.804;2024-03-25T19:31:27;98558.66;;;4.31;100.00
77410;BME280;66481;51.332;22.804;2024-03-25T19:35:29;98555.22;;;4.31;100.00
77410;BME280;66481;51.332;22.804;2024-03-25T19:39:31;98564.00;;;4.30;100.00
77410;BME280;66481;51.332;22.804;2024-03-25T19:43:34;98563.75;;;4.20;100.00
77410;BME280;66481;51.332;22.804;2024-03-25T19:47:36;98553.28;;;4.07;100.00
77410;BME280;66481;51.332;22.804;2024-03-25T19:51:38;98553.75;;;4.00;100.00
77410;BME280;66481;51.332;22.804;2024-03-25T19:55:40;98554.19;;;3.93;100.00
77410;BME280;66481;51.332;22.804;2024-03-25T19:59:41;98565.47;;;3.94;100.00
77410;BME280;66481;51.332;22.804;2024-03-25T20:03:45;98563.47;;;3.85;100.00
77410;BME280;66481;51.332;22.804;2024-03-25T20:07:47;98570.50;;;3.70;100.00
77410;BME280;66481;51.332;22.804;2024-03-25T20:11:48;98576.78;;;3.67;100.00
77410;BME280;66481;51.332;22.804;2024-03-25T20:15:50;98579.88;;;3.60;100.00
77410;BME280;66481;51.332;22.804;2024-03-25T20:19:52;98594.00;;;3.57;100.00
77410;BME280;66481;51.332;22.804;2024-03-25T20:23:53;98594.28;;;3.52;100.00
77410;BME280;66481;51.332;22.804;2024-03-25T20:27:54;98594.47;;;3.64;100.00
77410;BME280;66481;51.332;22.804;2024-03-25T20:31:56;98590.78;;;3.66;100.00
77410;BME280;66481;51.332;22.804;2024-03-25T20:35:58;98599.53;;;3.52;100.00
77410;BME280;66481;51.332;22.804;2024-03-25T20:40:05;98603.72;;;3.55;100.00
77410;BME280;66481;51.332;22.804;2024-03-25T20:44:07;98594.94;;;3.56;100.00
77410;BME280;66481;51.332;22.804;2024-03-25T20:48:10;98592.72;;;3.50;100.00
77410;BME280;66481;51.332;22.804;2024-03-25T20:52:13;98598.72;;;3.37;100.00
77410;BME280;66481;51.332;22.804;2024-03-25T20:56:15;98601.31;;;3.23;100.00
77410;BME280;66481;51.332;22.804;2024-03-25T21:00:19;98605.53;;;3.11;100.00
77410;BME280;66481;51.332;22.804;2024-03-25T21:04:20;98609.19;;;2.94;100.00
77410;BME280;66481;51.332;22.804;2024-03-25T21:08:22;98605.16;;;2.74;100.00